KPSN

Details ICAO KPSN
Name PALESTINE MUNI
Region United States
Timezone America/Chicago (UTC-6.0)
Plans Departing 11
Arriving 4
Stats Elevation 423 ft / 129 m (AMSL)
Location 31.779427° -95.706303°
Runways 2
Magnetic Variation 2.641° E
Sunrise 2017-12-13 13:15:41 UTC / 2017-12-13 07:15:41 Local
Sunset 2017-12-13 23:21:27 UTC / 2017-12-13 17:21:27 Local
Advertisement - Login to hide

Runways

ID Width Length Bearing (true) Bearing (mag) Surface Threshold Offset Overrun Length
09 75 ft / 23 m 3,996 ft / 1,218 m 90.56° 87.92° Asphalt 0 ft / 0 m 0 ft / 0 m
18 100 ft / 30 m 5,022 ft / 1,531 m 180.52° 177.88° Asphalt 0 ft / 0 m 0 ft / 0 m
27 75 ft / 23 m 3,996 ft / 1,218 m 270.57° 267.93° Asphalt 0 ft / 0 m 0 ft / 0 m
36 100 ft / 30 m 5,022 ft / 1,531 m 0.52° 357.88° Asphalt 0 ft / 0 m 0 ft / 0 m

Map

Weather


0- 5 10 15 20 25 30 35+ Temperature / ° C

Clouds and Precipitation
Forecast for 2017-12-13 18:00 UTC. Updated 12 minutes ago

Ground ~20,000 ft ~40,000 ft Winds

METAR

KPSN 131735Z AUTO 19010KT 10SM CLR 13/00 A3012 RMK AO2 T01321002

TAF

Not found

Frequencies

Recorded 118.02 MHz AWOS 3
Approach 135.25 MHz FORT WORTH CNTR
Unicom 122.70 MHz CTAF/UNICOM
Warning: Do not use this data for real-world aviation or navigation. No guarantee of current accuracy is given.